This is the latest recevied weather packets stored in our database for station/object NK7E-2. If no packets are shown the sender has not sent any weather packets the latest 10 day(s).
| Time | Temp. | Humidity | Pressure | Rain* | Wind** | Luminosity | Snow |
|---|---|---|---|---|---|---|---|
| 1788454217 | 27.22° C | 56% | 1028.5 hPa | 0 mm | - | - | - |
| 1788453617 | 26.67° C | 57% | 1028.5 hPa | 0 mm | - | - | - |
| 1788453017 | 26.67° C | 58% | 1028.5 hPa | 0 mm | - | - | - |
| 1788452417 | 26.67° C | 59% | 1028.3 hPa | 0 mm | - | - | - |
| 1788451817 | 26.11° C | 59% | 1028.2 hPa | 0 mm | - | - | - |
| 1788451217 | 26.11° C | 60% | 1028.3 hPa | 0 mm | - | - | - |
| 1788450617 | 26.11° C | 61% | 1028.5 hPa | 0 mm | - | - | - |
| 1788450017 | 26.11° C | 62% | 1028.5 hPa | 0 mm | - | - | - |
| 1788449417 | 26.11° C | 62% | 1028.8 hPa | 0 mm | - | - | - |
| 1788448817 | 26.11° C | 61% | 1028.5 hPa | 0 mm | - | - | - |
| 1788448217 | 25.56° C | 63% | 1028.4 hPa | 0 mm | - | - | - |
| 1788447617 | 25° C | 65% | 1028.3 hPa | 0 mm | - | - | - |
| 1788447017 | 25° C | 66% | 1028.3 hPa | 0 mm | - | - | - |
| 1788446417 | 24.44° C | 66% | 1028.3 hPa | 0 mm | - | - | - |
| 1788445817 | 24.44° C | 67% | 1028.3 hPa | 0 mm | - | - | - |
| 1788445217 | 24.44° C | 67% | 1028.4 hPa | 0 mm | - | - | - |
| 1788444617 | 24.44° C | 69% | 1028.1 hPa | 0 mm | - | - | - |
| 1788444017 | 23.89° C | 71% | 1027.9 hPa | 0 mm | - | - | - |
| 1788443417 | 23.89° C | 72% | 1028.1 hPa | 0 mm | - | - | - |
| 1788442817 | 24.44° C | 70% | 1028 hPa | 0 mm | - | - | - |
| 1788442217 | 24.44° C | 67% | 1027.8 hPa | 0 mm | - | - | - |
| 1788441617 | 24.44° C | 70% | 1027.8 hPa | 0 mm | - | - | - |
| 1788441017 | 24.44° C | 67% | 1027.6 hPa | 0 mm | - | - | - |
| 1788440417 | 25° C | 65% | 1027.4 hPa | 0 mm | - | - | - |
| 1788439817 | 25.56° C | 61% | 1027.5 hPa | 0 mm | - | - | - |
* Rain latest hour (hover to see other rain measurements)
** Current wind speed in m/s (hover to see current wind gust speed)